createdAt,value
2018-04-26T00:01:14.500Z,1.93
2018-04-26T00:03:41.962Z,1.40
2018-04-26T00:06:09.480Z,1.30
2018-04-26T00:08:37.903Z,1.70
2018-04-26T00:11:06.848Z,2.03
2018-04-26T00:13:34.317Z,1.73
2018-04-26T00:16:01.821Z,1.40
2018-04-26T00:18:30.259Z,1.70
2018-04-26T00:20:58.612Z,1.63
2018-04-26T00:23:26.100Z,2.03
2018-04-26T00:25:54.335Z,1.57
2018-04-26T00:28:21.811Z,1.93
2018-04-26T00:30:49.291Z,2.20
2018-04-26T00:33:16.758Z,2.40
2018-04-26T00:35:44.243Z,2.40
2018-04-26T00:38:12.485Z,2.33
2018-04-26T00:40:39.948Z,1.80
2018-04-26T00:43:07.432Z,2.27
2018-04-26T00:45:35.660Z,2.13
2018-04-26T00:48:03.168Z,1.47
2018-04-26T00:50:30.634Z,1.87
2018-04-26T00:52:58.860Z,2.27
2018-04-26T00:55:26.319Z,1.40
2018-04-26T00:57:54.495Z,1.60
2018-04-26T01:00:23.480Z,1.90
2018-04-26T01:02:51.636Z,2.00
2018-04-26T01:05:19.112Z,2.20
2018-04-26T01:07:46.565Z,2.50
2018-04-26T01:10:14.031Z,1.60
2018-04-26T01:12:41.510Z,1.90
2018-04-26T01:15:09.724Z,1.90
2018-04-26T01:17:38.039Z,2.60
2018-04-26T01:20:05.565Z,2.30
2018-04-26T01:22:33.759Z,1.87
2018-04-26T01:25:01.257Z,2.17
2018-04-26T01:27:29.500Z,1.57
2018-04-26T01:29:56.955Z,1.67
2018-04-26T01:32:24.495Z,1.50
2018-04-26T01:34:51.959Z,1.70
2018-04-26T01:37:31.245Z,1.83
2018-04-26T01:39:58.704Z,1.77
2018-04-26T01:42:26.164Z,1.73
2018-04-26T01:44:53.851Z,2.03
2018-04-26T01:47:22.024Z,1.73
2018-04-26T01:49:49.655Z,2.53
2018-04-26T01:52:17.139Z,2.10
2018-04-26T01:54:44.596Z,1.40
2018-04-26T01:57:12.672Z,2.57
2018-04-26T01:59:40.211Z,2.60
2018-04-26T02:02:07.660Z,2.23
2018-04-26T02:04:35.167Z,2.47
2018-04-26T02:07:02.632Z,3.37
2018-04-26T02:09:30.083Z,2.13
2018-04-26T02:11:57.559Z,1.90
2018-04-26T02:14:26.515Z,1.50
2018-04-26T02:16:53.975Z,3.20
2018-04-26T02:19:21.445Z,2.27
2018-04-26T02:21:49.690Z,2.13
2018-04-26T02:24:17.136Z,1.97
2018-04-26T02:26:45.364Z,1.90
2018-04-26T02:29:12.840Z,2.10
2018-04-26T02:31:41.064Z,2.00
2018-04-26T02:34:08.553Z,1.87
2018-04-26T02:36:36.772Z,2.17
2018-04-26T02:39:04.240Z,2.10
2018-04-26T02:41:31.697Z,1.50
2018-04-26T02:43:59.845Z,2.13
2018-04-26T02:46:27.316Z,2.20
2018-04-26T02:48:54.788Z,2.50
2018-04-26T02:51:22.841Z,1.67
2018-04-26T02:53:50.324Z,2.10
2018-04-26T02:56:17.784Z,2.10
2018-04-26T02:58:45.255Z,1.97
2018-04-26T03:01:12.757Z,1.47
2018-04-26T03:03:40.186Z,1.50
2018-04-26T03:06:09.168Z,1.87
2018-04-26T03:08:38.134Z,1.40
2018-04-26T03:11:05.613Z,1.40
2018-04-26T03:13:33.847Z,3.00
2018-04-26T03:16:01.303Z,1.40
2018-04-26T03:18:28.856Z,2.20
2018-04-26T03:20:56.344Z,2.00
2018-04-26T03:23:23.984Z,2.57
2018-04-26T03:25:51.435Z,2.27
2018-04-26T03:28:18.916Z,2.60
2018-04-26T03:30:46.383Z,3.23
2018-04-26T03:33:13.881Z,2.13
2018-04-26T03:35:41.356Z,1.77
2018-04-26T03:38:09.660Z,1.83
2018-04-26T03:40:37.113Z,1.60
2018-04-26T03:43:04.572Z,2.17
2018-04-26T03:45:32.080Z,1.60
2018-04-26T03:48:00.307Z,2.20
2018-04-26T03:50:27.772Z,1.60
2018-04-26T03:52:55.249Z,1.67
2018-04-26T03:55:23.537Z,2.07
2018-04-26T03:57:52.384Z,1.90
2018-04-26T04:00:31.900Z,2.23
2018-04-26T04:03:11.412Z,2.53
2018-04-26T04:05:45.872Z,2.47
2018-04-26T04:08:13.331Z,1.87
2018-04-26T04:10:40.811Z,1.97
2018-04-26T04:13:09.008Z,2.00
2018-04-26T04:15:37.276Z,2.10
2018-04-26T04:18:05.525Z,2.60
2018-04-26T04:20:32.992Z,2.97
2018-04-26T04:23:01.985Z,2.23
2018-04-26T04:25:31.900Z,2.50
2018-04-26T04:27:59.433Z,3.53
2018-04-26T04:30:26.817Z,2.30
2018-04-26T04:32:54.356Z,1.63
2018-04-26T04:35:21.820Z,1.50
2018-04-26T04:37:49.276Z,1.80
2018-04-26T04:40:16.904Z,2.07
2018-04-26T04:42:44.436Z,1.70
2018-04-26T04:45:12.010Z,2.37
2018-04-26T04:47:39.444Z,2.90
2018-04-26T04:50:07.672Z,2.10
2018-04-26T04:52:35.151Z,2.40
2018-04-26T04:55:02.616Z,2.80
2018-04-26T04:57:30.937Z,1.90
2018-04-26T04:59:58.520Z,1.47
2018-04-26T05:02:25.991Z,1.70
2018-04-26T05:04:53.459Z,1.70
2018-04-26T05:07:21.010Z,2.23
2018-04-26T05:09:49.163Z,2.03
2018-04-26T05:12:16.624Z,2.00
2018-04-26T05:14:44.097Z,1.23
2018-04-26T05:17:11.659Z,1.57
2018-04-26T05:19:39.161Z,2.10
2018-04-26T05:22:07.999Z,3.30
2018-04-26T05:24:35.484Z,2.00
2018-04-26T05:27:03.724Z,1.60
2018-04-26T05:29:31.277Z,1.50
2018-04-26T05:31:59.494Z,1.90
2018-04-26T05:34:27.724Z,1.30
2018-04-26T05:36:55.316Z,1.60
2018-04-26T05:39:22.768Z,1.77
2018-04-26T05:41:50.269Z,1.67
2018-04-26T05:44:17.732Z,1.90
2018-04-26T05:46:46.106Z,1.67
2018-04-26T05:49:13.584Z,1.43
2018-04-26T05:51:41.118Z,1.30
2018-04-26T05:54:08.576Z,1.03
2018-04-26T05:56:36.056Z,1.60
2018-04-26T05:59:03.512Z,1.53
2018-04-26T06:01:31.005Z,1.67
2018-04-26T06:03:58.545Z,1.47
2018-04-26T06:06:26.176Z,1.10
2018-04-26T06:08:53.714Z,1.23
2018-04-26T06:11:21.212Z,1.20
2018-04-26T06:13:48.645Z,1.43
2018-04-26T06:16:16.124Z,1.20
2018-04-26T06:18:43.616Z,0.90
2018-04-26T06:21:11.828Z,1.47
2018-04-26T06:23:39.297Z,1.40
2018-04-26T06:26:06.768Z,1.07
2018-04-26T06:28:34.234Z,1.20
2018-04-26T06:31:02.612Z,0.93
2018-04-26T06:33:30.438Z,0.90
2018-04-26T06:35:57.911Z,0.80
2018-04-26T06:38:25.509Z,1.30
2018-04-26T06:40:53.002Z,1.00
2018-04-26T06:43:20.476Z,1.20
2018-04-26T06:45:47.956Z,0.93
2018-04-26T06:48:15.493Z,1.43
2018-04-26T06:50:42.980Z,1.10
2018-04-26T06:53:11.217Z,0.97
2018-04-26T06:55:38.672Z,1.40
2018-04-26T06:58:06.144Z,1.03
2018-04-26T07:00:33.612Z,0.87
2018-04-26T07:03:01.099Z,1.10
2018-04-26T07:05:28.584Z,1.37
2018-04-26T07:07:56.067Z,0.87
2018-04-26T07:10:23.532Z,2.70
2018-04-26T07:12:50.993Z,1.70
2018-04-26T07:15:18.457Z,0.93
2018-04-26T07:17:45.927Z,1.17
2018-04-26T07:20:13.397Z,1.20
2018-04-26T07:22:41.660Z,1.47
2018-04-26T07:25:09.114Z,1.20
2018-04-26T07:27:38.612Z,1.07
2018-04-26T07:30:06.904Z,1.37
2018-04-26T07:32:35.165Z,1.40
2018-04-26T07:35:02.637Z,1.30
2018-04-26T07:37:31.649Z,1.20
2018-04-26T07:39:59.876Z,1.53
2018-04-26T07:42:27.343Z,1.20
2018-04-26T07:44:54.806Z,1.43
2018-04-26T07:47:23.845Z,1.83
2018-04-26T07:49:51.324Z,1.63
2018-04-26T07:52:18.800Z,1.10
2018-04-26T07:54:47.268Z,1.37
2018-04-26T07:57:14.754Z,1.40
2018-04-26T07:59:43.752Z,1.30
2018-04-26T08:02:11.220Z,1.73
2018-04-26T08:04:40.189Z,1.67
2018-04-26T08:07:08.540Z,1.27
2018-04-26T08:09:36.005Z,1.97
2018-04-26T08:12:03.468Z,1.00
2018-04-26T08:14:30.928Z,1.73
2018-04-26T08:16:59.016Z,1.50
2018-04-26T08:19:27.995Z,1.40
2018-04-26T08:21:55.477Z,1.57
2018-04-26T08:24:22.955Z,1.23
2018-04-26T08:26:51.196Z,1.00
2018-04-26T08:29:18.683Z,1.33
2018-04-26T08:31:47.485Z,1.27
2018-04-26T08:34:15.733Z,0.93
2018-04-26T08:36:43.983Z,1.20
2018-04-26T08:39:12.216Z,1.20
2018-04-26T08:41:40.413Z,1.10
2018-04-26T08:44:07.906Z,1.00
2018-04-26T08:46:35.373Z,0.80
2018-04-26T08:49:03.600Z,1.03
2018-04-26T08:51:31.102Z,1.13
2018-04-26T08:53:58.569Z,1.57
2018-04-26T08:56:26.793Z,1.47
2018-04-26T08:58:54.261Z,1.27
2018-04-26T09:01:21.740Z,1.90
2018-04-26T09:03:49.193Z,3.30
2018-04-26T09:06:17.441Z,1.80
2018-04-26T09:08:45.704Z,1.10
2018-04-26T09:11:13.168Z,1.30
2018-04-26T09:13:40.633Z,1.47
2018-04-26T09:16:08.098Z,2.17
2018-04-26T09:18:36.397Z,1.10
2018-04-26T09:21:05.376Z,1.60
2018-04-26T09:23:32.907Z,1.70
2018-04-26T09:26:00.409Z,1.23
2018-04-26T09:28:28.736Z,1.10
2018-04-26T09:30:56.329Z,1.00
2018-04-26T09:33:23.819Z,1.10
2018-04-26T09:35:52.540Z,1.27
2018-04-26T09:38:20.100Z,1.50
2018-04-26T09:40:47.582Z,1.50
2018-04-26T09:43:16.537Z,2.00
2018-04-26T09:45:44.016Z,1.20
2018-04-26T09:48:11.494Z,2.17
2018-04-26T09:50:38.949Z,1.33
2018-04-26T09:53:07.174Z,1.10
2018-04-26T09:55:35.350Z,3.77
2018-04-26T09:58:03.540Z,1.40
2018-04-26T10:00:31.115Z,1.40
2018-04-26T10:02:58.685Z,1.27
2018-04-26T10:05:31.872Z,1.77
2018-04-26T10:08:00.159Z,1.00
2018-04-26T10:10:27.618Z,1.30
2018-04-26T10:12:57.808Z,2.00
2018-04-26T10:15:25.288Z,1.17
2018-04-26T10:17:54.258Z,1.43
2018-04-26T10:20:22.303Z,1.60
2018-04-26T10:22:49.795Z,1.53
2018-04-26T10:25:17.265Z,1.67
2018-04-26T10:27:45.404Z,0.97
2018-04-26T10:30:12.877Z,1.40
2018-04-26T10:32:40.916Z,1.47
2018-04-26T10:35:08.469Z,1.23
2018-04-26T10:37:35.968Z,1.17
2018-04-26T10:40:03.461Z,1.40
2018-04-26T10:42:32.294Z,1.23
2018-04-26T10:44:59.765Z,1.40
2018-04-26T10:47:27.265Z,1.20
2018-04-26T10:49:55.500Z,1.50
2018-04-26T10:52:22.988Z,1.13
2018-04-26T10:54:51.238Z,1.90
2018-04-26T10:57:18.720Z,1.50
2018-04-26T10:59:46.977Z,1.60
2018-04-26T11:02:14.583Z,1.20
2018-04-26T11:04:42.049Z,1.50
2018-04-26T11:07:09.966Z,1.80
2018-04-26T11:09:37.458Z,1.40
2018-04-26T11:12:04.952Z,1.30
2018-04-26T11:14:32.425Z,1.53
2018-04-26T11:17:01.413Z,1.33
2018-04-26T11:19:30.175Z,1.63
2018-04-26T11:21:57.752Z,1.63
2018-04-26T11:24:25.371Z,1.90
2018-04-26T11:26:52.982Z,2.90
2018-04-26T11:29:20.623Z,1.87
2018-04-26T11:31:48.091Z,1.47
2018-04-26T11:34:15.581Z,1.70
2018-04-26T11:36:44.350Z,1.67
2018-04-26T11:39:11.880Z,1.57
2018-04-26T11:41:39.372Z,1.70
2018-04-26T11:44:06.862Z,1.83
2018-04-26T11:46:34.363Z,1.47
2018-04-26T11:49:01.861Z,1.93
2018-04-26T11:51:30.092Z,1.20
2018-04-26T11:53:57.580Z,1.30
2018-04-26T11:56:25.086Z,1.37
2018-04-26T11:58:53.406Z,1.13
2018-04-26T12:01:23.236Z,1.53
2018-04-26T12:03:51.536Z,1.20
2018-04-26T12:06:19.031Z,1.13
2018-04-26T12:08:46.526Z,1.10
2018-04-26T12:11:14.783Z,1.40
2018-04-26T12:13:42.278Z,1.10
2018-04-26T12:16:09.752Z,1.30
2018-04-26T12:18:37.219Z,1.03
2018-04-26T12:21:04.708Z,1.57
2018-04-26T12:23:33.640Z,0.87
2018-04-26T12:26:01.134Z,1.27
2018-04-26T12:28:28.645Z,0.90
2018-04-26T12:30:56.896Z,1.30
2018-04-26T12:33:24.840Z,1.60
2018-04-26T12:35:52.317Z,1.20
2018-04-26T12:38:19.788Z,1.23
2018-04-26T12:40:48.038Z,0.90
2018-04-26T12:43:17.012Z,0.90
2018-04-26T12:45:44.541Z,1.20
2018-04-26T12:48:12.787Z,1.10
2018-04-26T12:50:41.099Z,1.13
2018-04-26T12:53:08.556Z,1.40
2018-04-26T12:55:36.036Z,1.10
2018-04-26T12:58:03.560Z,0.80
2018-04-26T13:00:31.546Z,1.17
2018-04-26T13:02:59.028Z,1.27
2018-04-26T13:05:26.503Z,1.30
2018-04-26T13:07:55.457Z,1.17
2018-04-26T13:10:22.971Z,1.00
2018-04-26T13:12:50.418Z,1.13
2018-04-26T13:15:17.889Z,1.53
2018-04-26T13:17:46.117Z,1.20
2018-04-26T13:20:14.474Z,1.13
2018-04-26T13:22:41.943Z,2.07
2018-04-26T13:25:09.413Z,1.07
2018-04-26T13:27:38.338Z,1.73
2018-04-26T13:30:06.657Z,1.20
2018-04-26T13:32:34.141Z,1.20
2018-04-26T13:35:02.984Z,0.80
2018-04-26T13:37:30.463Z,1.20
2018-04-26T13:39:58.043Z,1.30
2018-04-26T13:42:26.288Z,1.23
2018-04-26T13:44:54.465Z,1.00
2018-04-26T13:47:21.944Z,1.00
2018-04-26T16:58:53.759Z,1.30
2018-04-26T17:01:21.224Z,1.30
2018-04-26T17:03:48.657Z,1.30
2018-04-26T17:06:16.076Z,1.63
2018-04-26T17:08:43.525Z,1.57
2018-04-26T17:11:10.945Z,1.20
2018-04-26T17:13:38.396Z,1.20
2018-04-26T17:16:05.846Z,1.47
2018-04-26T17:18:33.536Z,1.60
2018-04-26T17:21:01.151Z,1.20
2018-04-26T17:23:28.502Z,1.33
2018-04-26T17:25:56.016Z,1.37
2018-04-26T17:28:23.432Z,1.40
2018-04-26T17:30:50.904Z,1.33
2018-04-26T17:33:18.333Z,1.30
2018-04-26T17:35:45.744Z,1.20
2018-04-26T17:38:13.178Z,0.93
2018-04-26T17:40:40.620Z,0.90
2018-04-26T17:43:08.088Z,1.10
2018-04-26T17:45:35.536Z,1.30
2018-04-26T17:48:03.011Z,1.30
2018-04-26T17:50:30.394Z,1.23
2018-04-26T17:52:58.595Z,1.33
2018-04-26T17:55:26.085Z,1.03
2018-04-26T17:57:53.555Z,1.50
2018-04-26T18:00:20.990Z,1.00
2018-04-26T18:02:48.449Z,1.30
2018-04-26T18:05:15.885Z,1.30
2018-04-26T18:07:43.303Z,1.47
2018-04-26T18:10:11.532Z,1.20
2018-04-26T18:12:38.948Z,1.60
2018-04-26T18:15:06.380Z,0.80
2018-04-26T18:17:33.846Z,1.87
2018-04-26T18:20:08.576Z,1.40
2018-04-26T18:22:29.887Z,1.10
2018-04-26T18:24:58.104Z,1.40
2018-04-26T18:27:25.564Z,1.77
2018-04-26T18:29:53.021Z,1.67
2018-04-26T18:32:20.467Z,1.30
2018-04-26T18:34:47.895Z,1.33
2018-04-26T18:37:15.316Z,2.40
2018-04-26T18:39:42.749Z,1.43
2018-04-26T18:42:10.178Z,1.80
2018-04-26T18:44:37.653Z,1.20
2018-04-26T18:47:05.104Z,1.70
2018-04-26T18:49:32.564Z,1.63
2018-04-26T18:52:01.056Z,1.20
2018-04-26T18:54:28.501Z,1.30
2018-04-26T18:56:55.955Z,1.50
2018-04-26T18:59:23.412Z,1.50
2018-04-26T19:01:51.184Z,1.33
2018-04-26T19:04:18.632Z,1.50
2018-04-26T19:06:46.065Z,2.03
2018-04-26T19:09:13.498Z,1.77
2018-04-26T19:11:41.717Z,1.87
2018-04-26T19:14:09.154Z,1.40
2018-04-26T19:16:36.560Z,1.70
2018-04-26T19:19:03.997Z,2.30
2018-04-26T19:21:31.433Z,1.60
2018-04-26T19:23:58.892Z,1.10
2018-04-26T19:26:26.332Z,1.77
2018-04-26T19:28:53.804Z,1.63
2018-04-26T19:31:21.229Z,2.23
2018-04-26T19:33:48.667Z,1.40
2018-04-26T19:36:16.888Z,3.57
2018-04-26T19:38:44.340Z,5.20
2018-04-26T19:41:11.790Z,4.50
2018-04-26T19:43:39.260Z,5.17
2018-04-26T19:46:06.720Z,4.10
2018-04-26T19:48:34.173Z,5.17
2018-04-26T19:51:01.601Z,2.40
2018-04-26T19:53:29.071Z,2.87
2018-04-26T19:55:56.499Z,2.30
2018-04-26T19:58:24.718Z,2.17
2018-04-26T20:00:52.354Z,3.10
2018-04-26T20:03:19.842Z,2.70
2018-04-26T20:05:47.291Z,2.23
2018-04-26T20:08:14.748Z,1.93
2018-04-26T20:10:42.212Z,2.20
2018-04-26T20:13:09.737Z,2.27
2018-04-26T20:15:37.152Z,1.70
2018-04-26T20:18:05.332Z,2.50
2018-04-26T20:20:33.533Z,1.60
2018-04-26T20:23:00.953Z,2.33
2018-04-26T20:25:29.153Z,2.90
2018-04-26T20:27:56.576Z,2.50
2018-04-26T20:30:24.825Z,2.30
2018-04-26T20:32:52.255Z,2.10
2018-04-26T20:35:19.810Z,2.83
2018-04-26T20:37:47.216Z,2.13
2018-04-26T20:40:16.217Z,3.63
2018-04-26T20:42:44.472Z,3.07
2018-04-26T20:45:11.989Z,2.70
2018-04-26T20:47:39.475Z,4.10
2018-04-26T20:50:06.917Z,3.20
2018-04-26T20:52:34.364Z,4.20
2018-04-26T20:55:01.816Z,3.97
2018-04-26T20:57:29.284Z,4.20
2018-04-26T20:59:56.733Z,5.10
2018-04-26T21:02:24.282Z,5.10
2018-04-26T21:04:51.733Z,5.60
2018-04-26T21:07:19.162Z,5.83
2018-04-26T21:09:47.378Z,5.70
2018-04-26T21:12:14.796Z,5.80
2018-04-26T21:14:42.286Z,5.90
2018-04-26T21:17:09.789Z,5.07
2018-04-26T21:19:37.209Z,5.03
2018-04-26T21:22:04.658Z,8.30
2018-04-26T21:24:32.116Z,5.10
2018-04-26T21:26:59.544Z,5.20
2018-04-26T21:29:26.999Z,5.53
2018-04-26T21:31:54.489Z,6.87
2018-04-26T21:34:21.913Z,5.27
2018-04-26T21:36:49.392Z,5.77
2018-04-26T21:39:16.858Z,6.47
2018-04-26T21:41:44.292Z,6.97
2018-04-26T21:44:11.717Z,7.00
2018-04-26T21:46:39.957Z,6.37
2018-04-26T21:49:07.380Z,7.67
2018-04-26T21:51:40.416Z,8.40
2018-04-26T21:54:13.573Z,6.43
2018-04-26T21:56:46.725Z,7.53
2018-04-26T21:59:19.837Z,8.43
2018-04-26T22:01:52.884Z,9.83
2018-04-26T22:04:32.873Z,9.83
2018-04-26T22:07:00.340Z,9.43
2018-04-26T22:09:27.820Z,10.87
2018-04-26T22:11:55.256Z,10.30
2018-04-26T22:14:22.672Z,10.20
2018-04-26T22:16:50.186Z,10.93
2018-04-26T22:19:17.616Z,11.40
2018-04-26T22:21:45.044Z,12.70
2018-04-26T22:24:12.488Z,11.03
2018-04-26T22:26:40.000Z,12.13
2018-04-26T22:29:07.431Z,11.30
2018-04-26T22:31:34.901Z,13.07
2018-04-26T22:34:02.322Z,11.87
2018-04-26T22:36:29.749Z,13.33
2018-04-26T22:38:57.978Z,13.17
2018-04-26T22:41:25.416Z,14.60
2018-04-26T22:43:52.840Z,13.67
2018-04-26T22:46:21.260Z,15.80
2018-04-26T22:48:48.684Z,15.90
2018-04-26T22:51:16.131Z,15.90
2018-04-26T22:53:44.331Z,14.27
2018-04-26T22:56:11.803Z,13.10
2018-04-26T22:58:39.247Z,14.60
2018-04-26T23:01:06.680Z,14.97
2018-04-26T23:03:34.108Z,13.17
2018-04-26T23:06:01.637Z,14.87
2018-04-26T23:08:29.088Z,15.40
2018-04-26T23:10:56.541Z,14.70
2018-04-26T23:13:24.138Z,14.53
2018-04-26T23:15:51.657Z,14.50
2018-04-26T23:18:19.085Z,14.40
2018-04-26T23:20:46.564Z,15.77
2018-04-26T23:23:14.010Z,14.70
2018-04-26T23:25:41.436Z,15.13
2018-04-26T23:28:09.640Z,15.20
2018-04-26T23:30:37.060Z,19.07
2018-04-26T23:33:05.268Z,16.97
2018-04-26T23:35:32.706Z,18.37
2018-04-26T23:38:00.192Z,19.53
2018-04-26T23:40:27.633Z,20.33
2018-04-26T23:42:55.108Z,19.17
2018-04-26T23:45:22.547Z,19.93
2018-04-26T23:47:50.020Z,21.87
2018-04-26T23:50:17.464Z,23.17
2018-04-26T23:52:44.887Z,22.97
2018-04-26T23:55:12.308Z,22.70
2018-04-26T23:57:39.739Z,23.83
